fecha-hora | temperatura | viento dirección-velocidad-rachas | humedad | presión

  • 28-10-2020 18:00:00 | 19.20°C | Sudoeste-9.00 km/h - 17.00 km/h | 64.00% | 1019.20 hPa
  • 28-10-2020 17:00:00 | 20.30°C | Sudoeste-13.00 km/h - 24.00 km/h | 63.00% | 1019.00 hPa
  • 28-10-2020 16:00:00 | 21.00°C | Sudoeste-15.00 km/h - 26.00 km/h | 58.00% | 1018.90 hPa
  • 28-10-2020 15:00:00 | 21.20°C | Sudoeste-18.00 km/h - 26.00 km/h | 55.00% | 1018.80 hPa
  • 28-10-2020 14:00:00 | 21.80°C | Sudoeste-15.00 km/h - 32.00 km/h | 52.00% | 1018.70 hPa
  • 28-10-2020 13:00:00 | 21.70°C | Sudoeste-19.00 km/h - 26.00 km/h | 49.00% | 1018.80 hPa
  • 28-10-2020 12:00:00 | 21.80°C | Sudoeste-18.00 km/h - 30.00 km/h | 46.00% | 1019.30 hPa
  • 28-10-2020 11:00:00 | 21.60°C | Sudoeste-20.00 km/h - 30.00 km/h | 47.00% | 1019.20 hPa
  • 28-10-2020 10:00:00 | 20.60°C | Sudoeste-13.00 km/h - 21.00 km/h | 51.00% | 1019.00 hPa
  • 28-10-2020 09:00:00 | 18.00°C | Este-2.00 km/h - 8.00 km/h | 62.00% | 1018.60 hPa
  • 28-10-2020 08:00:00 | 13.40°C | Calma-0.00 km/h - 5.00 km/h | 76.00% | 1017.90 hPa
  • 28-10-2020 07:00:00 | 11.50°C | Calma-0.00 km/h - 5.00 km/h | 80.00% | 1017.10 hPa
  • 28-10-2020 06:00:00 | 12.30°C | Oeste-4.00 km/h - 8.00 km/h | 76.00% | 1016.50 hPa
  • 28-10-2020 05:00:00 | 12.60°C | Calma-0.00 km/h - 13.00 km/h | 74.00% | 1016.10 hPa
  • 28-10-2020 04:00:00 | 13.80°C | Noroeste-10.00 km/h - 13.00 km/h | 71.00% | 1015.70 hPa
  • 28-10-2020 03:00:00 | 14.20°C | Oeste-10.00 km/h - 13.00 km/h | 74.00% | 1015.80 hPa
  • 28-10-2020 02:00:00 | 14.60°C | Noroeste-11.00 km/h - 13.00 km/h | 76.00% | 1016.10 hPa
  • 28-10-2020 01:00:00 | 15.20°C | Noroeste-8.00 km/h - 22.00 km/h | 77.00% | 1016.40 hPa
  • 28-10-2020 00:00:00 | 17.90°C | Sudoeste-16.00 km/h - 26.00 km/h | 69.00% | 1016.50 hPa
  • 27-10-2020 23:00:00 | 17.90°C | Sudoeste-22.00 km/h - 28.00 km/h | 67.00% | 1016.70 hPa
  • 27-10-2020 22:00:00 | 18.00°C | Sudoeste-18.00 km/h - 26.00 km/h | 67.00% | 1016.70 hPa
  • 27-10-2020 21:00:00 | 13.20°C | Noroeste-4.00 km/h - 13.00 km/h | 63.00% | 1016.60 hPa
  • 27-10-2020 20:00:00 | 15.10°C | Noroeste-9.00 km/h - 18.00 km/h | 57.00% | 1016.40 hPa
  • 27-10-2020 19:00:00 | 17.40°C | Sudoeste-15.00 km/h - 24.00 km/h | 50.00% | 1016.10 hPa
    • diseño web asturias Información sobre el estado de las mareas, altura de la marejada, temperatura del agua y otros datos de Gijón en Asturias.

      Surf Gijón